createdAt,value
2022-07-29T00:01:32.608Z,13.87
2022-07-29T00:04:00.863Z,13.85
2022-07-29T00:06:29.136Z,13.88
2022-07-29T00:08:57.318Z,13.81
2022-07-29T00:11:26.800Z,13.74
2022-07-29T00:13:54.940Z,13.72
2022-07-29T00:16:24.071Z,13.61
2022-07-29T00:18:52.590Z,13.62
2022-07-29T00:21:20.764Z,13.51
2022-07-29T00:23:48.909Z,13.38
2022-07-29T00:26:17.133Z,13.32
2022-07-29T00:28:46.680Z,13.35
2022-07-29T00:31:15.042Z,13.37
2022-07-29T00:33:43.339Z,13.12
2022-07-29T00:36:10.547Z,13.11
2022-07-29T00:38:38.685Z,13.38
2022-07-29T00:41:06.862Z,13.42
2022-07-29T00:43:35.008Z,13.18
2022-07-29T00:46:04.607Z,13.17
2022-07-29T00:48:33.265Z,13.27
2022-07-29T00:51:04.027Z,13.05
2022-07-29T00:53:34.058Z,13.27
2022-07-29T00:56:02.383Z,12.95
2022-07-29T00:58:30.655Z,13.14
2022-07-29T01:01:00.015Z,13.30
2022-07-29T01:03:29.576Z,13.21
2022-07-29T01:05:58.177Z,13.18
2022-07-29T01:08:26.539Z,13.30
2022-07-29T01:10:56.017Z,13.37
2022-07-29T01:13:24.876Z,13.35
2022-07-29T01:15:58.486Z,13.20
2022-07-29T01:18:35.578Z,13.32
2022-07-29T01:21:26.685Z,13.20
2022-07-29T01:24:10.957Z,13.32
2022-07-29T01:26:47.550Z,13.25
2022-07-29T01:29:26.590Z,13.22
2022-07-29T01:32:03.499Z,13.19
2022-07-29T01:34:40.111Z,13.18
2022-07-29T01:37:14.696Z,13.22
2022-07-29T01:39:46.691Z,13.31
2022-07-29T01:42:22.052Z,13.40
2022-07-29T01:44:57.885Z,13.13
2022-07-29T01:47:33.650Z,13.28
2022-07-29T01:50:09.503Z,13.23
2022-07-29T01:52:41.624Z,13.09
2022-07-29T01:55:16.009Z,12.85
2022-07-29T01:57:46.483Z,13.20
2022-07-29T02:00:18.078Z,13.11
2022-07-29T02:02:49.415Z,13.09
2022-07-29T02:05:20.726Z,13.23
2022-07-29T02:07:51.055Z,13.24
2022-07-29T02:10:26.084Z,13.13
2022-07-29T02:12:56.973Z,13.06
2022-07-29T02:15:29.177Z,13.06
2022-07-29T02:18:01.938Z,13.23
2022-07-29T02:20:31.914Z,12.97
2022-07-29T02:23:01.469Z,12.70
2022-07-29T02:25:36.989Z,12.87
2022-07-29T02:28:08.452Z,12.93
2022-07-29T02:30:42.319Z,12.91
2022-07-29T02:33:14.068Z,12.64
2022-07-29T02:35:43.814Z,12.94
2022-07-29T02:38:33.104Z,12.94
2022-07-29T02:41:03.145Z,12.75
2022-07-29T02:43:33.208Z,12.95
2022-07-29T02:46:04.588Z,12.65
2022-07-29T02:48:47.380Z,12.88
2022-07-29T02:51:41.427Z,12.79
2022-07-29T02:54:12.519Z,12.94
2022-07-29T02:56:42.528Z,12.70
2022-07-29T02:59:15.737Z,12.88
2022-07-29T03:01:47.224Z,12.98
2022-07-29T03:04:17.655Z,12.96
2022-07-29T03:06:46.810Z,12.85
2022-07-29T03:09:15.975Z,12.84
2022-07-29T03:11:50.412Z,12.90
2022-07-29T03:14:21.513Z,12.67
2022-07-29T03:16:52.597Z,12.64
2022-07-29T03:19:22.105Z,12.76
2022-07-29T03:21:50.620Z,12.76
2022-07-29T03:24:31.849Z,12.65
2022-07-29T03:27:00.532Z,12.51
2022-07-29T03:29:33.690Z,12.50
2022-07-29T03:32:08.426Z,12.65
2022-07-29T03:34:38.834Z,12.62
2022-07-29T03:37:08.540Z,12.67
2022-07-29T03:39:41.218Z,12.70
2022-07-29T03:42:12.460Z,12.68
2022-07-29T03:44:43.637Z,12.94
2022-07-29T03:47:16.370Z,12.72
2022-07-29T03:49:48.441Z,12.88
2022-07-29T03:52:17.278Z,12.91
2022-07-29T03:54:45.661Z,13.02
2022-07-29T03:57:14.514Z,12.97
2022-07-29T03:59:44.126Z,12.97
2022-07-29T04:02:14.947Z,12.99
2022-07-29T04:04:45.870Z,13.24
2022-07-29T04:07:14.688Z,13.20
2022-07-29T04:09:43.696Z,13.42
2022-07-29T04:12:12.284Z,13.63
2022-07-29T04:14:40.473Z,13.70
2022-07-29T04:17:08.799Z,13.59
2022-07-29T04:19:38.407Z,13.54
2022-07-29T04:22:06.605Z,13.67
2022-07-29T04:24:34.758Z,13.97
2022-07-29T04:27:02.907Z,14.05
2022-07-29T04:29:31.472Z,14.21
2022-07-29T04:31:59.637Z,14.22
2022-07-29T04:34:28.280Z,14.28
2022-07-29T04:36:58.067Z,14.30
2022-07-29T04:39:27.261Z,14.44
2022-07-29T04:41:58.975Z,14.31
2022-07-29T04:44:28.583Z,14.56
2022-07-29T04:46:58.585Z,14.23
2022-07-29T04:49:27.019Z,14.28
2022-07-29T04:51:55.694Z,14.40
2022-07-29T04:54:25.648Z,14.34
2022-07-29T04:56:54.637Z,14.25
2022-07-29T04:59:22.959Z,14.13
2022-07-29T05:01:51.128Z,14.17
2022-07-29T05:04:19.971Z,14.29
2022-07-29T05:06:49.905Z,14.34
2022-07-29T05:09:18.119Z,14.52
2022-07-29T05:11:47.616Z,14.62
2022-07-29T05:14:16.176Z,14.64
2022-07-29T05:16:44.563Z,14.51
2022-07-29T05:19:14.573Z,14.61
2022-07-29T05:21:43.305Z,14.53
2022-07-29T05:24:11.542Z,14.82
2022-07-29T05:26:39.984Z,14.98
2022-07-29T05:29:44.221Z,15.03
2022-07-29T05:32:06.750Z,15.20
2022-07-29T05:34:35.042Z,15.19
2022-07-29T05:37:03.290Z,15.10
2022-07-29T05:39:47.359Z,14.98
2022-07-29T05:42:19.149Z,15.08
2022-07-29T05:44:48.391Z,15.05
2022-07-29T05:47:17.962Z,14.93
2022-07-29T05:49:47.041Z,15.07
2022-07-29T05:52:15.373Z,15.08
2022-07-29T05:54:43.852Z,15.11
2022-07-29T05:57:17.575Z,14.99
2022-07-29T05:59:45.921Z,15.22
2022-07-29T06:02:14.141Z,15.43
2022-07-29T06:04:43.772Z,15.58
2022-07-29T06:07:12.332Z,15.58
2022-07-29T06:09:40.627Z,15.39
2022-07-29T06:12:09.102Z,15.19
2022-07-29T06:14:38.859Z,15.36
2022-07-29T06:17:07.436Z,15.30
2022-07-29T06:19:37.211Z,15.34
2022-07-29T06:22:06.840Z,15.39
2022-07-29T06:24:35.029Z,15.41
2022-07-29T06:27:03.274Z,15.51
2022-07-29T06:29:31.725Z,15.61
2022-07-29T06:31:59.884Z,15.71
2022-07-29T06:34:28.166Z,15.65
2022-07-29T06:36:56.514Z,15.93
2022-07-29T06:39:26.144Z,16.15
2022-07-29T06:41:54.980Z,16.09
2022-07-29T06:44:26.664Z,16.08
2022-07-29T06:46:55.749Z,16.11
2022-07-29T06:49:25.367Z,16.26
2022-07-29T06:51:53.757Z,16.40
2022-07-29T06:54:22.648Z,16.59
2022-07-29T06:56:52.337Z,16.73
2022-07-29T06:59:26.246Z,16.80
2022-07-29T07:01:59.046Z,16.90
2022-07-29T07:04:27.236Z,16.87
2022-07-29T07:06:56.559Z,16.70
2022-07-29T07:09:24.693Z,16.95
2022-07-29T07:12:09.854Z,16.82
2022-07-29T07:14:38.033Z,16.98
2022-07-29T07:17:07.956Z,17.09
2022-07-29T07:19:36.229Z,17.19
2022-07-29T07:22:04.408Z,17.30
2022-07-29T07:24:33.062Z,17.41
2022-07-29T07:27:01.228Z,17.46
2022-07-29T07:29:30.806Z,17.65
2022-07-29T07:32:01.321Z,17.41
2022-07-29T07:34:31.013Z,17.78
2022-07-29T07:36:59.262Z,18.21
2022-07-29T07:39:27.846Z,18.27
2022-07-29T07:41:56.050Z,18.52
2022-07-29T07:44:24.540Z,18.55
2022-07-29T07:46:54.684Z,18.64
2022-07-29T07:49:23.196Z,18.50
2022-07-29T07:51:51.547Z,19.07
2022-07-29T07:54:20.880Z,19.54
2022-07-29T07:56:53.126Z,19.51
2022-07-29T07:59:21.999Z,20.08
2022-07-29T08:01:56.187Z,19.72
2022-07-29T08:04:28.737Z,19.94
2022-07-29T08:06:58.022Z,20.20
2022-07-29T08:09:30.343Z,20.03
2022-07-29T08:11:59.851Z,20.31
2022-07-29T08:14:28.034Z,20.51
2022-07-29T08:16:56.234Z,20.39
2022-07-29T08:19:26.133Z,20.27
2022-07-29T08:21:54.904Z,20.65
2022-07-29T08:24:40.745Z,20.36
2022-07-29T08:27:26.893Z,20.66
2022-07-29T08:29:57.623Z,20.82
2022-07-29T08:32:50.890Z,21.45
2022-07-29T08:35:15.333Z,21.67
2022-07-29T08:37:43.467Z,21.98
2022-07-29T08:40:13.503Z,22.18
2022-07-29T08:42:41.911Z,22.21
2022-07-29T08:45:10.988Z,22.30
2022-07-29T08:47:41.352Z,22.02
2022-07-29T08:50:11.247Z,22.09
2022-07-29T08:52:42.576Z,21.92
2022-07-29T08:55:12.082Z,21.77
2022-07-29T08:57:50.793Z,22.08
2022-07-29T09:00:20.445Z,22.39
2022-07-29T09:02:53.186Z,22.65
2022-07-29T09:05:21.998Z,22.64
2022-07-29T09:07:52.217Z,22.98
2022-07-29T09:10:20.397Z,23.01
2022-07-29T09:12:49.749Z,22.91
2022-07-29T09:15:19.574Z,22.91
2022-07-29T09:17:48.944Z,22.60
2022-07-29T09:20:19.827Z,22.59
2022-07-29T09:22:50.509Z,22.56
2022-07-29T09:28:13.946Z,22.45
2022-07-29T09:30:53.059Z,22.51
2022-07-29T09:33:22.112Z,22.63
2022-07-29T09:36:01.853Z,22.54
2022-07-29T09:38:30.390Z,22.71
2022-07-29T09:40:59.895Z,22.86
2022-07-29T09:43:35.959Z,23.11
2022-07-29T09:46:14.708Z,23.01
2022-07-29T09:48:42.948Z,23.06
2022-07-29T09:51:21.539Z,23.09
2022-07-29T09:53:53.033Z,23.37
2022-07-29T09:56:21.958Z,23.55
2022-07-29T09:59:07.808Z,23.51
2022-07-29T10:01:36.921Z,23.36
2022-07-29T10:04:05.475Z,23.30
2022-07-29T10:06:33.732Z,23.18
2022-07-29T10:09:11.407Z,23.01
2022-07-29T10:11:49.273Z,22.90
2022-07-29T10:14:19.935Z,23.16
2022-07-29T10:16:48.536Z,23.07
2022-07-29T10:19:16.924Z,23.14
2022-07-29T10:21:45.846Z,23.11
2022-07-29T10:24:14.929Z,23.09
2022-07-29T10:26:43.922Z,23.32
2022-07-29T10:29:12.143Z,23.67
2022-07-29T10:31:50.581Z,24.17
2022-07-29T10:34:32.867Z,23.88
2022-07-29T10:37:10.560Z,23.64
2022-07-29T10:39:54.271Z,23.72
2022-07-29T10:42:34.101Z,23.84
2022-07-29T10:45:04.560Z,23.83
2022-07-29T10:47:35.067Z,24.30
2022-07-29T10:50:05.760Z,24.60
2022-07-29T10:52:57.567Z,24.62
2022-07-29T10:55:37.659Z,24.47
2022-07-29T10:58:18.061Z,24.83
2022-07-29T11:00:49.369Z,24.76
2022-07-29T11:03:50.790Z,24.59
2022-07-29T11:06:26.682Z,24.49
2022-07-29T11:09:18.094Z,24.50
2022-07-29T11:11:51.502Z,24.34
2022-07-29T11:14:20.093Z,24.39
2022-07-29T11:17:07.385Z,25.02
2022-07-29T11:19:40.271Z,25.26
2022-07-29T11:22:11.428Z,25.37
2022-07-29T11:24:49.309Z,25.08
2022-07-29T11:27:21.160Z,24.69
2022-07-29T11:29:52.156Z,25.10
2022-07-29T11:32:23.640Z,25.30
2022-07-29T11:35:17.258Z,24.98
2022-07-29T11:37:52.830Z,24.93
2022-07-29T11:40:25.990Z,25.51
2022-07-29T11:42:55.055Z,25.61
2022-07-29T11:45:41.477Z,25.69
2022-07-29T11:48:30.009Z,25.87
2022-07-29T11:51:03.071Z,25.65
2022-07-29T11:53:33.029Z,25.85
2022-07-29T11:56:02.667Z,26.00
2022-07-29T11:58:32.756Z,26.17
2022-07-29T12:01:04.656Z,26.49
2022-07-29T12:03:35.896Z,26.52
2022-07-29T12:06:15.022Z,26.26
2022-07-29T12:08:45.076Z,26.18
2022-07-29T12:11:22.450Z,26.21
2022-07-29T12:13:52.249Z,26.59
2022-07-29T12:16:25.722Z,26.66
2022-07-29T12:19:02.473Z,26.77
2022-07-29T12:21:53.792Z,26.17
2022-07-29T12:24:26.510Z,26.15
2022-07-29T12:26:57.080Z,26.26
2022-07-29T12:29:35.155Z,26.59
2022-07-29T12:32:05.376Z,27.06
2022-07-29T12:34:34.327Z,26.58
2022-07-29T12:37:04.467Z,26.80
2022-07-29T12:39:32.838Z,26.46
2022-07-29T12:42:03.853Z,26.54
2022-07-29T12:44:46.350Z,26.52
2022-07-29T12:47:14.596Z,26.52
2022-07-29T12:49:43.099Z,26.44
2022-07-29T12:52:30.259Z,26.52
2022-07-29T12:54:58.854Z,26.79
2022-07-29T12:57:27.634Z,26.86
2022-07-29T13:00:08.680Z,26.30
2022-07-29T13:02:37.933Z,26.07
2022-07-29T13:05:09.206Z,25.89
2022-07-29T13:07:55.805Z,26.16
2022-07-29T13:10:25.846Z,26.53
2022-07-29T13:13:04.628Z,27.01
2022-07-29T13:15:33.638Z,26.66
2022-07-29T13:18:01.947Z,26.88
2022-07-29T13:20:31.678Z,26.21
2022-07-29T13:23:02.397Z,26.29
2022-07-29T13:25:32.633Z,26.11
2022-07-29T13:28:01.719Z,26.17
2022-07-29T13:30:30.153Z,26.48
2022-07-29T13:32:58.380Z,26.46
2022-07-29T13:35:26.835Z,26.81
2022-07-29T13:37:55.084Z,26.80
2022-07-29T13:40:24.707Z,26.79
2022-07-29T13:42:52.866Z,26.42
2022-07-29T13:45:21.046Z,26.06
2022-07-29T13:47:49.581Z,26.53
2022-07-29T13:50:17.859Z,26.76
2022-07-29T13:52:45.987Z,26.92
2022-07-29T13:55:14.297Z,27.03
2022-07-29T13:57:43.832Z,26.64
2022-07-29T14:00:13.021Z,26.51
2022-07-29T14:02:41.166Z,26.37
2022-07-29T14:05:10.786Z,26.06
2022-07-29T14:07:40.393Z,25.77
2022-07-29T14:10:09.227Z,25.83
2022-07-29T14:12:37.363Z,25.81
2022-07-29T14:15:07.824Z,25.94
2022-07-29T14:17:36.192Z,26.26
2022-07-29T14:20:05.072Z,26.11
2022-07-29T14:22:36.074Z,25.77
2022-07-29T14:25:14.671Z,26.07
2022-07-29T14:27:44.441Z,26.84
2022-07-29T14:30:15.029Z,27.41
2022-07-29T14:32:43.377Z,27.51
2022-07-29T14:35:11.726Z,27.54
2022-07-29T14:37:41.430Z,27.58
2022-07-29T14:40:11.273Z,27.18
2022-07-29T14:42:40.042Z,27.82
2022-07-29T14:45:09.855Z,28.07
2022-07-29T14:47:40.484Z,27.91
2022-07-29T14:50:09.662Z,27.57
2022-07-29T14:52:38.353Z,27.60
2022-07-29T14:55:16.696Z,27.60
2022-07-29T14:57:48.105Z,28.06
2022-07-29T15:00:16.704Z,27.72
2022-07-29T15:03:01.475Z,28.48
2022-07-29T15:05:31.089Z,27.52
2022-07-29T15:07:59.882Z,28.71
2022-07-29T15:10:28.190Z,29.93
2022-07-29T15:12:56.725Z,30.11
2022-07-29T15:15:25.072Z,28.31
2022-07-29T15:17:54.589Z,27.61
2022-07-29T15:20:26.113Z,29.42
2022-07-29T15:22:56.350Z,30.71
2022-07-29T15:25:24.597Z,32.03
2022-07-29T15:27:55.667Z,33.48
2022-07-29T15:30:30.922Z,33.53
2022-07-29T15:33:03.371Z,33.33
2022-07-29T15:35:31.620Z,31.90
2022-07-29T15:37:59.877Z,31.15
2022-07-29T15:40:28.031Z,31.72
2022-07-29T15:42:56.492Z,31.40
2022-07-29T15:45:24.885Z,30.48
2022-07-29T15:47:53.099Z,30.78
2022-07-29T15:50:22.731Z,30.26
2022-07-29T15:52:50.885Z,30.95
2022-07-29T15:55:19.189Z,30.51
2022-07-29T15:57:47.396Z,32.08
2022-07-29T16:00:17.499Z,31.09
2022-07-29T16:02:46.163Z,30.62
2022-07-29T16:05:14.314Z,31.25
2022-07-29T16:07:43.812Z,30.82
2022-07-29T16:10:12.292Z,29.88
2022-07-29T16:12:40.437Z,30.45
2022-07-29T16:15:10.839Z,31.13
2022-07-29T16:17:39.323Z,29.62
2022-07-29T16:20:08.761Z,29.34
2022-07-29T16:22:38.707Z,29.33
2022-07-29T16:25:09.573Z,29.92
2022-07-29T16:27:38.269Z,29.77
2022-07-29T16:30:09.570Z,29.40
2022-07-29T16:32:38.057Z,29.06
2022-07-29T16:35:07.382Z,28.81
2022-07-29T16:37:37.163Z,29.18
2022-07-29T16:40:07.120Z,29.26
2022-07-29T16:42:46.515Z,28.93
2022-07-29T16:45:15.762Z,28.89
2022-07-29T16:47:44.280Z,29.73
2022-07-29T16:50:12.562Z,28.85
2022-07-29T16:52:40.930Z,28.07
2022-07-29T16:55:09.505Z,27.55
2022-07-29T16:57:39.318Z,26.85
2022-07-29T17:00:08.785Z,26.91
2022-07-29T17:02:38.655Z,26.56
2022-07-29T17:05:07.873Z,26.33
2022-07-29T17:07:36.140Z,26.12
2022-07-29T17:10:07.963Z,25.88
2022-07-29T17:12:39.891Z,25.85
2022-07-29T17:15:10.444Z,25.85
2022-07-29T17:17:55.158Z,25.79
2022-07-29T17:20:26.693Z,25.68
2022-07-29T17:22:55.135Z,25.82
2022-07-29T17:25:24.741Z,25.77
2022-07-29T17:28:00.496Z,25.52
2022-07-29T17:30:29.505Z,25.45
2022-07-29T17:32:57.873Z,25.24
2022-07-29T17:35:43.703Z,25.24
2022-07-29T17:38:11.908Z,25.03
2022-07-29T17:40:40.058Z,24.88
2022-07-29T17:43:10.180Z,25.01
2022-07-29T17:45:49.829Z,24.82
2022-07-29T17:48:19.264Z,24.93
2022-07-29T17:50:48.567Z,24.76
2022-07-29T17:53:17.065Z,24.83
2022-07-29T17:55:46.230Z,24.83
2022-07-29T17:58:16.793Z,24.65
2022-07-29T18:00:45.111Z,24.58
2022-07-29T18:03:13.489Z,24.64
2022-07-29T18:05:42.434Z,24.43
2022-07-29T18:08:11.007Z,24.33
2022-07-29T18:10:39.342Z,24.41
2022-07-29T18:13:07.834Z,24.41
2022-07-29T18:15:37.518Z,24.20
2022-07-29T18:18:05.869Z,24.25
2022-07-29T18:20:34.827Z,24.02
2022-07-29T18:23:03.325Z,23.98
2022-07-29T18:25:31.506Z,23.94
2022-07-29T18:28:01.054Z,23.85
2022-07-29T18:30:29.442Z,23.68
2022-07-29T18:33:20.104Z,23.63
2022-07-29T18:35:48.301Z,23.78
2022-07-29T18:38:16.713Z,23.59
2022-07-29T18:40:45.806Z,23.53
2022-07-29T18:43:14.541Z,23.48
2022-07-29T18:45:42.753Z,23.52
2022-07-29T18:48:13.145Z,23.29
2022-07-29T18:50:41.982Z,23.28
2022-07-29T18:53:10.301Z,23.21
2022-07-29T18:55:38.550Z,23.06
2022-07-29T18:58:06.804Z,23.22
2022-07-29T19:00:35.362Z,23.07
2022-07-29T19:03:04.274Z,22.85
2022-07-29T19:05:34.230Z,22.79
2022-07-29T19:08:02.472Z,22.78
2022-07-29T19:10:31.253Z,22.77
2022-07-29T19:12:59.439Z,22.74
2022-07-29T19:15:28.007Z,22.70
2022-07-29T19:18:00.825Z,22.63
2022-07-29T19:20:29.429Z,22.54
2022-07-29T19:22:59.021Z,22.48
2022-07-29T19:25:27.305Z,22.45
2022-07-29T19:27:55.488Z,22.33
2022-07-29T19:30:23.878Z,22.33
2022-07-29T19:32:52.179Z,22.12
2022-07-29T19:35:28.249Z,22.20
2022-07-29T19:37:58.777Z,21.98
2022-07-29T19:40:29.516Z,22.02
2022-07-29T19:42:57.972Z,21.97
2022-07-29T19:45:26.570Z,21.76
2022-07-29T19:48:00.736Z,21.78
2022-07-29T19:50:29.769Z,21.72
2022-07-29T19:52:58.329Z,21.62
2022-07-29T19:55:28.742Z,21.67
2022-07-29T19:57:58.920Z,21.61
2022-07-29T20:00:28.446Z,21.50
2022-07-29T20:02:58.861Z,21.45
2022-07-29T20:07:56.935Z,21.42
2022-07-29T20:10:25.354Z,21.30
2022-07-29T20:12:55.301Z,21.24
2022-07-29T20:15:23.965Z,21.16
2022-07-29T20:17:56.761Z,21.00
2022-07-29T20:20:26.600Z,21.05
2022-07-29T20:22:55.252Z,20.94
2022-07-29T20:25:23.842Z,20.95
2022-07-29T20:27:53.135Z,20.88
2022-07-29T20:30:23.336Z,20.69
2022-07-29T20:32:52.301Z,20.85
2022-07-29T20:35:22.339Z,20.65
2022-07-29T20:37:56.059Z,20.60
2022-07-29T20:40:25.475Z,20.50
2022-07-29T20:42:53.832Z,20.45
2022-07-29T20:45:23.972Z,20.48
2022-07-29T20:47:52.670Z,20.54
2022-07-29T20:50:24.012Z,20.36
2022-07-29T20:52:53.211Z,20.42
2022-07-29T20:55:21.996Z,20.34
2022-07-29T20:57:50.523Z,20.36
2022-07-29T21:00:19.073Z,20.24
2022-07-29T21:02:48.689Z,20.24
2022-07-29T21:05:17.082Z,20.21
2022-07-29T21:07:45.264Z,20.36
2022-07-29T21:10:14.315Z,20.14
2022-07-29T21:12:42.959Z,20.06
2022-07-29T21:15:13.544Z,20.03
2022-07-29T21:17:46.764Z,20.00
2022-07-29T21:20:17.944Z,20.04
2022-07-29T21:22:46.757Z,20.04
2022-07-29T21:25:15.059Z,19.87
2022-07-29T21:28:00.802Z,19.78
2022-07-29T21:30:29.003Z,19.78
2022-07-29T21:32:57.231Z,19.83
2022-07-29T21:36:01.887Z,19.73
2022-07-29T21:38:16.326Z,19.72
2022-07-29T21:40:45.088Z,19.61
2022-07-29T21:43:13.802Z,19.54
2022-07-29T21:45:43.729Z,19.42
2022-07-29T21:48:11.954Z,19.53
2022-07-29T21:50:41.468Z,19.23
2022-07-29T21:53:11.132Z,19.20
2022-07-29T21:55:42.294Z,19.23
2022-07-29T21:58:11.199Z,19.26
2022-07-29T22:00:39.419Z,19.17
2022-07-29T22:03:08.682Z,19.14
2022-07-29T22:05:36.965Z,19.10
2022-07-29T22:08:06.730Z,19.13
2022-07-29T22:10:35.652Z,19.16
2022-07-29T22:13:04.101Z,19.26
2022-07-29T22:15:32.504Z,19.32
2022-07-29T22:18:00.884Z,19.13
2022-07-29T22:20:29.553Z,19.27
2022-07-29T22:22:57.799Z,19.32
2022-07-29T22:25:27.308Z,19.08
2022-07-29T22:27:55.460Z,19.22
2022-07-29T22:30:23.845Z,19.00
2022-07-29T22:32:52.416Z,19.20
2022-07-29T22:35:20.627Z,19.11
2022-07-29T22:37:48.769Z,19.22
2022-07-29T22:40:16.939Z,19.29
2022-07-29T22:42:46.428Z,19.16
2022-07-29T22:45:14.628Z,19.21
2022-07-29T22:47:47.899Z,19.21
2022-07-29T22:50:17.312Z,19.15
2022-07-29T22:52:45.925Z,19.18
2022-07-29T22:55:14.402Z,19.14
2022-07-29T22:57:42.675Z,19.22
2022-07-29T23:00:14.180Z,19.17
2022-07-29T23:02:42.454Z,19.07
2022-07-29T23:05:11.295Z,18.93
2022-07-29T23:07:39.519Z,19.02
2022-07-29T23:10:08.631Z,18.92
2022-07-29T23:12:37.234Z,19.01
2022-07-29T23:15:06.014Z,18.96
2022-07-29T23:17:36.276Z,19.01
2022-07-29T23:20:07.670Z,18.95
2022-07-29T23:22:36.101Z,18.99
2022-07-29T23:25:06.202Z,18.87
2022-07-29T23:27:34.506Z,18.81
2022-07-29T23:30:02.946Z,18.82
2022-07-29T23:32:31.213Z,18.75
2022-07-29T23:35:00.745Z,18.61
2022-07-29T23:37:28.889Z,18.58
2022-07-29T23:39:57.252Z,18.59
2022-07-29T23:42:25.426Z,18.56
2022-07-29T23:44:53.608Z,18.60
2022-07-29T23:47:22.697Z,18.58
2022-07-29T23:49:50.897Z,18.59
2022-07-29T23:52:20.394Z,18.20
2022-07-29T23:54:48.576Z,18.23
2022-07-29T23:57:16.722Z,18.05
2022-07-29T23:59:44.870Z,18.01
